createdAt,value
2018-09-15T00:00:04.782Z,16.70
2018-09-15T00:02:32.916Z,16.70
2018-09-15T00:05:01.103Z,16.60
2018-09-15T00:07:29.262Z,16.60
2018-09-15T00:09:57.478Z,16.50
2018-09-15T00:12:25.599Z,16.50
2018-09-15T00:14:53.785Z,16.40
2018-09-15T00:17:21.991Z,16.40
2018-09-15T00:19:50.131Z,16.30
2018-09-15T00:22:18.306Z,16.30
2018-09-15T00:24:46.584Z,16.20
2018-09-15T00:27:14.774Z,16.10
2018-09-15T00:29:43.091Z,16.00
2018-09-15T00:32:11.225Z,15.90
2018-09-15T00:34:39.411Z,15.80
2018-09-15T00:37:07.612Z,15.70
2018-09-15T00:39:35.812Z,15.70
2018-09-15T00:42:03.968Z,15.60
2018-09-15T00:44:32.150Z,15.50
2018-09-15T00:47:01.284Z,15.50
2018-09-15T00:49:29.440Z,15.40
2018-09-15T00:51:58.108Z,15.40
2018-09-15T00:54:26.306Z,15.40
2018-09-15T00:56:54.498Z,15.30
2018-09-15T00:59:22.652Z,15.30
2018-09-15T01:01:52.085Z,15.20
2018-09-15T01:04:20.231Z,15.20
2018-09-15T01:06:49.504Z,15.10
2018-09-15T01:09:17.631Z,15.10
2018-09-15T01:11:45.814Z,15.10
2018-09-15T01:14:14.082Z,15.10
2018-09-15T01:16:42.122Z,15.10
2018-09-15T01:19:10.294Z,15.10
2018-09-15T01:21:39.340Z,15.00
2018-09-15T01:24:08.629Z,15.00
2018-09-15T01:26:36.877Z,15.00
2018-09-15T01:29:05.034Z,15.00
2018-09-15T01:31:33.224Z,15.10
2018-09-15T01:34:01.434Z,15.00
2018-09-15T01:36:29.563Z,15.00
2018-09-15T01:38:58.334Z,15.00
2018-09-15T01:41:26.486Z,15.00
2018-09-15T01:43:54.605Z,14.90
2018-09-15T01:46:22.743Z,14.90
2018-09-15T01:48:50.860Z,14.90
2018-09-15T01:51:19.028Z,14.90
2018-09-15T01:53:47.200Z,14.90
2018-09-15T01:56:15.382Z,14.80
2018-09-15T01:58:43.528Z,14.80
2018-09-15T02:01:11.660Z,14.80
2018-09-15T02:03:39.800Z,14.70
2018-09-15T02:06:07.996Z,14.70
2018-09-15T02:08:36.166Z,14.60
2018-09-15T02:11:04.410Z,14.50
2018-09-15T02:13:32.549Z,14.50
2018-09-15T02:16:00.674Z,14.40
2018-09-15T02:18:28.874Z,14.40
2018-09-15T02:20:57.010Z,14.40
2018-09-15T02:23:25.166Z,14.30
2018-09-15T02:25:53.330Z,14.20
2018-09-15T02:28:21.534Z,14.20
2018-09-15T02:30:49.694Z,14.10
2018-09-15T02:33:19.348Z,14.10
2018-09-15T02:35:47.476Z,14.00
2018-09-15T02:38:15.653Z,14.00
2018-09-15T02:40:43.813Z,14.00
2018-09-15T02:43:12.504Z,14.00
2018-09-15T02:45:40.669Z,13.90
2018-09-15T02:48:08.841Z,13.90
2018-09-15T02:50:37.112Z,13.80
2018-09-15T02:53:05.397Z,13.70
2018-09-15T02:55:34.565Z,13.70
2018-09-15T02:58:02.724Z,13.70
2018-09-15T03:00:31.090Z,13.70
2018-09-15T03:02:59.256Z,13.70
2018-09-15T03:05:27.382Z,13.60
2018-09-15T03:07:55.520Z,13.60
2018-09-15T03:10:23.653Z,13.60
2018-09-15T03:12:51.807Z,13.50
2018-09-15T03:15:19.935Z,13.50
2018-09-15T03:17:48.097Z,13.40
2018-09-15T03:20:16.256Z,13.40
2018-09-15T03:22:44.389Z,13.40
2018-09-15T03:25:12.529Z,13.30
2018-09-15T03:27:40.704Z,13.30
2018-09-15T03:30:08.831Z,13.30
2018-09-15T03:32:37.004Z,13.40
2018-09-15T03:35:05.183Z,13.40
2018-09-15T03:37:33.340Z,13.30
2018-09-15T03:40:01.486Z,13.30
2018-09-15T03:42:29.709Z,13.20
2018-09-15T03:44:57.836Z,13.20
2018-09-15T03:47:25.986Z,13.20
2018-09-15T03:49:54.158Z,13.30
2018-09-15T03:52:22.332Z,13.30
2018-09-15T03:54:50.485Z,13.40
2018-09-15T03:57:18.627Z,13.40
2018-09-15T03:59:46.796Z,13.50
2018-09-15T04:02:14.895Z,13.50
2018-09-15T04:04:43.045Z,13.50
2018-09-15T04:07:11.302Z,13.50
2018-09-15T04:09:39.458Z,13.50
2018-09-15T04:12:07.619Z,13.50
2018-09-15T04:14:35.789Z,13.50
2018-09-15T04:17:04.038Z,13.60
2018-09-15T04:19:32.212Z,13.50
2018-09-15T04:22:01.048Z,13.50
2018-09-15T04:24:30.194Z,13.50
2018-09-15T04:26:58.370Z,13.50
2018-09-15T04:29:26.538Z,13.60
2018-09-15T04:31:54.824Z,13.70
2018-09-15T04:34:22.959Z,13.80
2018-09-15T04:36:51.144Z,13.90
2018-09-15T04:39:19.301Z,14.00
2018-09-15T04:41:47.551Z,14.10
2018-09-15T04:44:15.692Z,14.20
2018-09-15T04:46:43.822Z,14.20
2018-09-15T04:51:49.010Z,14.30
2018-09-15T04:54:18.383Z,14.30
2018-09-15T04:56:46.590Z,14.30
2018-09-15T04:59:14.745Z,14.30
2018-09-15T05:01:42.898Z,14.40
2018-09-15T05:04:11.168Z,14.40
2018-09-15T05:06:39.422Z,14.50
2018-09-15T05:09:09.626Z,14.50
2018-09-15T05:11:37.800Z,14.60
2018-09-15T05:14:05.966Z,14.60
2018-09-15T05:16:34.416Z,14.60
2018-09-15T05:19:02.604Z,14.60
2018-09-15T05:21:30.786Z,14.50
2018-09-15T05:23:58.988Z,14.50
2018-09-15T05:26:27.158Z,14.50
2018-09-15T05:28:55.273Z,14.50
2018-09-15T05:31:23.465Z,14.40
2018-09-15T05:33:51.756Z,14.40
2018-09-15T05:36:20.029Z,14.40
2018-09-15T05:38:48.249Z,14.50
2018-09-15T05:41:16.476Z,14.50
2018-09-15T05:43:44.624Z,14.60
2018-09-15T05:46:12.730Z,14.70
2018-09-15T05:48:41.408Z,14.80
2018-09-15T05:51:09.595Z,14.90
2018-09-15T05:53:37.740Z,15.00
2018-09-15T05:56:06.202Z,15.10
2018-09-15T05:58:34.368Z,15.10
2018-09-15T06:01:02.519Z,15.20
2018-09-15T06:03:30.696Z,15.30
2018-09-15T06:05:58.870Z,15.30
2018-09-15T06:08:27.178Z,15.40
2018-09-15T06:10:55.387Z,15.40
2018-09-15T06:13:23.616Z,15.50
2018-09-15T06:15:51.838Z,15.70
2018-09-15T06:18:20.014Z,16.00
2018-09-15T06:20:48.273Z,16.20
2018-09-15T06:23:16.526Z,16.30
2018-09-15T06:25:45.543Z,16.40
2018-09-15T06:28:13.680Z,16.40
2018-09-15T06:30:41.912Z,16.40
2018-09-15T06:33:10.184Z,16.40
2018-09-15T06:35:38.358Z,16.50
2018-09-15T06:38:06.942Z,16.50
2018-09-15T06:40:35.615Z,16.50
2018-09-15T06:43:03.747Z,16.50
2018-09-15T06:45:31.910Z,16.50
2018-09-15T06:48:00.051Z,16.60
2018-09-15T06:50:28.188Z,16.60
2018-09-15T06:52:56.350Z,16.70
2018-09-15T06:55:24.513Z,16.70
2018-09-15T06:57:52.658Z,16.70
2018-09-15T07:00:20.809Z,16.80
2018-09-15T07:02:49.064Z,16.90
2018-09-15T07:05:17.227Z,16.90
2018-09-15T07:07:47.025Z,17.00
2018-09-15T07:10:16.862Z,17.00
2018-09-15T07:12:45.122Z,17.00
2018-09-15T07:15:13.254Z,17.00
2018-09-15T07:17:41.434Z,17.00
2018-09-15T07:20:09.720Z,17.00
2018-09-15T07:22:37.855Z,17.00
2018-09-15T07:25:06.014Z,17.10
2018-09-15T07:27:34.782Z,17.10
2018-09-15T07:30:02.988Z,17.10
2018-09-15T07:32:31.203Z,17.20
2018-09-15T07:34:59.494Z,17.20
2018-09-15T07:37:27.648Z,17.20
2018-09-15T07:39:55.816Z,17.20
2018-09-15T07:42:24.377Z,17.20
2018-09-15T07:44:52.673Z,17.20
2018-09-15T07:47:20.684Z,17.20
2018-09-15T07:49:48.790Z,17.20
2018-09-15T07:52:16.947Z,17.20
2018-09-15T07:54:45.347Z,17.20
2018-09-15T07:57:13.517Z,17.20
2018-09-15T07:59:41.748Z,17.20
2018-09-15T08:02:15.539Z,17.20
2018-09-15T08:04:43.734Z,17.20
2018-09-15T08:07:11.860Z,17.20
2018-09-15T08:09:40.143Z,17.30
2018-09-15T08:12:08.322Z,17.30
2018-09-15T08:14:36.541Z,17.40
2018-09-15T08:17:04.736Z,17.40
2018-09-15T08:19:32.896Z,17.50
2018-09-15T08:22:01.046Z,17.60
2018-09-15T08:24:29.194Z,17.60
2018-09-15T08:26:57.443Z,17.60
2018-09-15T08:29:26.302Z,17.60
2018-09-15T08:31:54.644Z,17.70
2018-09-15T08:34:23.037Z,17.80
2018-09-15T08:36:51.369Z,17.90
2018-09-15T08:39:19.770Z,17.90
2018-09-15T08:41:47.999Z,17.90
2018-09-15T08:44:16.236Z,18.00
2018-09-15T08:46:45.166Z,18.00
2018-09-15T08:49:13.340Z,18.00
2018-09-15T08:51:41.482Z,18.10
2018-09-15T08:54:09.726Z,18.10
2018-09-15T08:56:37.876Z,18.10
2018-09-15T08:59:06.062Z,18.00
2018-09-15T09:01:34.336Z,18.00
2018-09-15T09:04:02.537Z,18.00
2018-09-15T09:06:30.716Z,18.20
2018-09-15T09:08:58.892Z,18.40
2018-09-15T09:11:27.108Z,18.60
2018-09-15T09:13:55.232Z,18.70
2018-09-15T09:16:23.425Z,19.00
2018-09-15T09:18:52.076Z,19.00
2018-09-15T09:21:20.235Z,18.90
2018-09-15T09:23:48.480Z,18.90
2018-09-15T09:26:18.420Z,18.90
2018-09-15T09:28:47.661Z,18.90
2018-09-15T09:31:16.140Z,19.00
2018-09-15T09:33:45.520Z,19.10
2018-09-15T09:36:13.956Z,19.20
2018-09-15T09:38:42.135Z,19.30
2018-09-15T09:41:11.352Z,19.30
2018-09-15T09:43:39.676Z,19.40
2018-09-15T09:46:07.886Z,19.50
2018-09-15T09:48:36.084Z,19.60
2018-09-15T09:51:04.298Z,19.50
2018-09-15T09:53:32.541Z,19.40
2018-09-15T09:56:00.731Z,19.30
2018-09-15T09:58:28.959Z,19.20
2018-09-15T10:00:58.031Z,19.20
2018-09-15T10:03:26.708Z,19.10
2018-09-15T10:05:55.065Z,19.00
2018-09-15T10:08:23.299Z,19.00
2018-09-15T10:10:52.184Z,19.20
2018-09-15T10:13:20.480Z,19.40
2018-09-15T10:15:48.681Z,19.50
2018-09-15T10:18:17.012Z,19.50
2018-09-15T10:20:45.200Z,19.50
2018-09-15T10:23:13.427Z,19.50
2018-09-15T10:25:41.608Z,19.60
2018-09-15T10:28:09.848Z,19.60
2018-09-15T10:30:38.060Z,19.70
2018-09-15T10:33:06.938Z,19.80
2018-09-15T10:35:35.123Z,19.80
2018-09-15T10:38:03.262Z,19.70
2018-09-15T10:40:31.450Z,19.80
2018-09-15T10:42:59.782Z,19.80
2018-09-15T10:45:27.896Z,19.90
2018-09-15T10:47:56.200Z,19.80
2018-09-15T10:50:24.578Z,19.70
2018-09-15T10:52:53.572Z,19.70
2018-09-15T10:55:21.849Z,19.80
2018-09-15T10:57:50.046Z,20.00
2018-09-15T11:00:18.298Z,20.10
2018-09-15T11:02:46.428Z,20.30
2018-09-15T11:05:14.586Z,20.40
2018-09-15T11:07:44.592Z,20.30
2018-09-15T11:10:12.842Z,20.30
2018-09-15T11:12:41.757Z,20.20
2018-09-15T11:15:09.923Z,20.00
2018-09-15T11:17:38.097Z,20.00
2018-09-15T11:20:07.522Z,20.10
2018-09-15T11:22:35.789Z,20.30
2018-09-15T11:25:03.908Z,20.40
2018-09-15T11:27:32.177Z,20.50
2018-09-15T11:30:00.345Z,20.70
2018-09-15T11:32:28.525Z,21.00
2018-09-15T11:34:57.847Z,21.40
2018-09-15T11:37:27.078Z,21.60
2018-09-15T11:39:55.259Z,21.70
2018-09-15T11:42:23.684Z,21.60
2018-09-15T11:44:51.941Z,21.40
2018-09-15T11:47:20.456Z,21.40
2018-09-15T11:49:48.654Z,21.40
2018-09-15T11:52:16.864Z,21.40
2018-09-15T11:54:45.198Z,21.30
2018-09-15T11:57:13.493Z,21.50
2018-09-15T11:59:41.942Z,21.50
2018-09-15T12:02:10.155Z,21.50
2018-09-15T12:04:39.610Z,21.50
2018-09-15T12:07:07.837Z,21.40
2018-09-15T12:09:36.077Z,21.30
2018-09-15T12:12:04.246Z,21.30
2018-09-15T12:14:32.424Z,21.30
2018-09-15T12:17:00.613Z,21.30
2018-09-15T12:19:28.823Z,21.40
2018-09-15T12:21:57.109Z,21.40
2018-09-15T12:24:25.368Z,21.50
2018-09-15T12:26:55.064Z,21.60
2018-09-15T12:29:23.284Z,21.60
2018-09-15T12:31:54.169Z,21.80
2018-09-15T12:34:22.439Z,22.00
2018-09-15T12:36:50.583Z,22.10
2018-09-15T12:39:18.760Z,22.20
2018-09-15T12:41:53.675Z,22.20
2018-09-15T12:44:21.947Z,22.30
2018-09-15T12:46:50.700Z,22.30
2018-09-15T12:49:19.454Z,22.30
2018-09-15T12:51:47.888Z,22.40
2018-09-15T12:54:16.046Z,22.30
2018-09-15T12:56:44.212Z,22.30
2018-09-15T12:59:12.354Z,22.40
2018-09-15T13:01:40.589Z,22.30
2018-09-15T13:04:08.865Z,22.30
2018-09-15T13:06:37.059Z,22.30
2018-09-15T13:09:07.804Z,22.30
2018-09-15T13:11:35.961Z,22.30
2018-09-15T13:14:04.191Z,22.30
2018-09-15T13:16:32.345Z,22.20
2018-09-15T13:19:00.694Z,22.20
2018-09-15T13:21:28.804Z,22.10
2018-09-15T13:23:56.938Z,22.00
2018-09-15T13:26:25.071Z,21.90
2018-09-15T13:28:53.211Z,21.80
2018-09-15T13:31:21.368Z,21.70
2018-09-15T13:33:49.526Z,21.70
2018-09-15T13:36:17.708Z,21.70
2018-09-15T13:38:45.865Z,21.70
2018-09-15T13:41:14.066Z,21.80
2018-09-15T13:43:42.302Z,21.80
2018-09-15T13:46:11.116Z,21.80
2018-09-15T13:48:39.256Z,21.80
2018-09-15T13:51:07.602Z,21.70
2018-09-15T13:53:35.737Z,21.70
2018-09-15T13:56:03.920Z,21.60
2018-09-15T13:58:32.175Z,21.50
2018-09-15T14:01:00.569Z,21.50
2018-09-15T14:03:28.746Z,21.50
2018-09-15T14:05:56.987Z,21.60
2018-09-15T14:08:26.254Z,21.70
2018-09-15T14:10:54.497Z,21.80
2018-09-15T14:13:22.656Z,21.70
2018-09-15T14:15:50.786Z,21.60
2018-09-15T14:18:18.950Z,21.60
2018-09-15T14:20:47.131Z,21.60
2018-09-15T14:23:15.273Z,21.50
2018-09-15T14:25:43.411Z,21.40
2018-09-15T14:28:11.582Z,21.20
2018-09-15T14:30:39.741Z,21.10
2018-09-15T14:33:08.241Z,20.90
2018-09-15T14:35:36.698Z,20.80
2018-09-15T14:38:04.997Z,20.70
2018-09-15T14:40:33.128Z,20.60
2018-09-15T14:43:01.287Z,20.60
2018-09-15T14:45:29.477Z,20.50
2018-09-15T14:47:57.704Z,20.50
2018-09-15T14:50:26.046Z,20.50
2018-09-15T14:52:54.107Z,20.50
2018-09-15T14:55:22.253Z,20.60
2018-09-15T14:57:50.369Z,20.60
2018-09-15T15:00:18.525Z,20.70
2018-09-15T15:02:50.523Z,20.80
2018-09-15T15:05:18.650Z,20.90
2018-09-15T15:07:47.376Z,21.00
2018-09-15T15:10:15.462Z,21.10
2018-09-15T15:12:43.690Z,21.20
2018-09-15T15:15:11.942Z,21.20
2018-09-15T15:17:40.063Z,21.20
2018-09-15T15:20:08.203Z,21.20
2018-09-15T15:22:36.391Z,21.10
2018-09-15T15:25:05.349Z,21.00
2018-09-15T15:27:33.561Z,20.90
2018-09-15T15:30:01.693Z,20.90
2018-09-15T15:32:29.935Z,20.90
2018-09-15T15:34:58.087Z,20.90
2018-09-15T15:37:26.275Z,20.80
2018-09-15T15:39:54.461Z,20.80
2018-09-15T15:42:22.749Z,20.80
2018-09-15T15:44:50.874Z,20.80
2018-09-15T15:47:19.221Z,20.80
2018-09-15T15:49:48.055Z,20.70
2018-09-15T15:52:16.195Z,20.70
2018-09-15T15:54:44.313Z,20.60
2018-09-15T15:57:12.557Z,20.50
2018-09-15T15:59:41.853Z,20.40
2018-09-15T16:02:10.011Z,20.40
2018-09-15T16:04:38.135Z,20.40
2018-09-15T16:07:06.287Z,20.30
2018-09-15T16:09:34.591Z,20.30
2018-09-15T16:12:03.825Z,20.30
2018-09-15T16:14:32.005Z,20.20
2018-09-15T16:17:00.177Z,20.20
2018-09-15T16:19:28.353Z,20.20
2018-09-15T16:21:56.515Z,20.20
2018-09-15T16:24:24.649Z,20.10
2018-09-15T16:26:52.829Z,20.20
2018-09-15T16:29:21.509Z,20.10
2018-09-15T16:31:49.718Z,20.00
2018-09-15T16:34:17.971Z,19.90
2018-09-15T16:36:46.159Z,19.90
2018-09-15T16:39:14.306Z,19.80
2018-09-15T16:41:42.457Z,19.70
2018-09-15T16:44:10.594Z,19.70
2018-09-15T16:46:38.817Z,19.70
2018-09-15T16:49:07.774Z,19.70
2018-09-15T16:51:37.185Z,19.60
2018-09-15T16:54:06.375Z,19.50
2018-09-15T16:56:34.975Z,19.50
2018-09-15T16:59:03.156Z,19.30
2018-09-15T17:01:31.315Z,19.20
2018-09-15T17:03:59.457Z,19.20
2018-09-15T17:06:27.837Z,19.10
2018-09-15T17:08:56.974Z,19.00
2018-09-15T17:11:25.954Z,18.90
2018-09-15T17:13:54.133Z,18.90
2018-09-15T17:16:22.370Z,18.80
2018-09-15T17:18:50.524Z,18.70
2018-09-15T17:21:18.673Z,18.70
2018-09-15T17:23:46.837Z,18.60
2018-09-15T17:26:15.074Z,18.60
2018-09-15T17:28:43.219Z,18.50
2018-09-15T17:31:11.408Z,18.50
2018-09-15T17:33:39.638Z,18.50
2018-09-15T17:36:07.795Z,18.50
2018-09-15T17:38:36.122Z,18.50
2018-09-15T17:41:04.316Z,18.40
2018-09-15T17:43:32.455Z,18.40
2018-09-15T17:46:00.561Z,18.20
2018-09-15T17:48:28.806Z,18.10
2018-09-15T17:50:57.018Z,18.10
2018-09-15T17:53:25.239Z,18.00
2018-09-15T17:55:53.398Z,18.00
2018-09-15T17:58:21.600Z,17.90
2018-09-15T18:00:50.534Z,17.90
2018-09-15T18:03:18.672Z,18.00
2018-09-15T18:05:46.852Z,18.00
2018-09-15T18:08:15.019Z,18.00
2018-09-15T18:10:43.172Z,17.90
2018-09-15T18:13:11.635Z,17.90
2018-09-15T18:15:39.847Z,17.90
2018-09-15T18:18:08.181Z,17.90
2018-09-15T18:20:37.299Z,17.90
2018-09-15T18:23:05.504Z,18.00
2018-09-15T18:25:33.734Z,18.10
2018-09-15T18:28:01.897Z,18.10
2018-09-15T18:30:31.153Z,18.20
2018-09-15T18:32:59.389Z,18.20
2018-09-15T18:35:27.567Z,18.20
2018-09-15T18:37:55.805Z,18.20
2018-09-15T18:40:23.956Z,18.10
2018-09-15T18:42:52.187Z,18.00
2018-09-15T18:45:20.325Z,17.90
2018-09-15T18:47:48.453Z,17.80
2018-09-15T18:50:16.738Z,17.70
2018-09-15T18:52:44.911Z,17.70
2018-09-15T18:55:13.289Z,17.60
2018-09-15T18:57:41.473Z,17.50
2018-09-15T19:00:09.677Z,17.50
2018-09-15T19:02:37.950Z,17.40
2018-09-15T19:05:06.309Z,17.40
2018-09-15T19:07:34.426Z,17.30
2018-09-15T19:10:02.615Z,17.20
2018-09-15T19:12:30.857Z,17.20
2018-09-15T19:14:59.025Z,17.10
2018-09-15T19:17:27.532Z,17.10
2018-09-15T19:19:55.847Z,17.10
2018-09-15T19:22:24.045Z,17.10
2018-09-15T19:24:52.244Z,17.10
2018-09-15T19:27:20.419Z,17.10
2018-09-15T19:29:48.711Z,17.10
2018-09-15T19:32:16.856Z,17.20
2018-09-15T19:34:44.989Z,17.10
2018-09-15T19:37:13.241Z,17.10
2018-09-15T19:39:42.402Z,17.10
2018-09-15T19:42:10.640Z,17.10
2018-09-15T19:44:38.908Z,17.00
2018-09-15T19:47:07.049Z,17.10
2018-09-15T19:49:35.193Z,17.10
2018-09-15T19:52:03.357Z,17.00
2018-09-15T19:54:31.501Z,17.00
2018-09-15T19:56:59.617Z,17.00
2018-09-15T19:59:27.795Z,16.90
2018-09-15T20:01:56.498Z,16.90
2018-09-15T20:04:25.285Z,16.90
2018-09-15T20:06:53.448Z,16.90
2018-09-15T20:09:21.595Z,16.90
2018-09-15T20:11:49.770Z,16.80
2018-09-15T20:14:17.922Z,16.80
2018-09-15T20:16:45.129Z,16.70
2018-09-15T20:19:12.415Z,16.70
2018-09-15T20:21:39.593Z,16.60
2018-09-15T20:24:07.777Z,16.50
2018-09-15T20:26:35.997Z,16.50
2018-09-15T20:29:04.185Z,16.40
2018-09-15T20:31:32.329Z,16.40
2018-09-15T20:34:00.473Z,16.40
2018-09-15T20:36:28.658Z,16.30
2018-09-15T20:38:56.815Z,16.30
2018-09-15T20:41:25.007Z,16.30
2018-09-15T20:43:53.133Z,16.30
2018-09-15T20:46:21.787Z,16.30
2018-09-15T20:48:50.365Z,16.30
2018-09-15T20:51:18.560Z,16.20
2018-09-15T20:53:46.717Z,16.20
2018-09-15T20:56:14.878Z,16.10
2018-09-15T20:58:43.010Z,16.10
2018-09-15T21:01:11.187Z,16.00
2018-09-15T21:03:39.299Z,15.90
2018-09-15T21:06:07.424Z,15.80
2018-09-15T21:08:35.566Z,15.80
2018-09-15T21:11:03.927Z,15.70
2018-09-15T21:13:32.053Z,15.50
2018-09-15T21:16:00.325Z,15.50
2018-09-15T21:18:28.460Z,15.40
2018-09-15T21:20:56.659Z,15.40
2018-09-15T21:23:24.772Z,15.30
2018-09-15T21:25:52.940Z,15.30
2018-09-15T21:28:21.064Z,15.20
2018-09-15T21:30:49.248Z,15.10
2018-09-15T21:33:17.388Z,15.10
2018-09-15T21:35:47.053Z,15.00
2018-09-15T21:38:15.189Z,15.00
2018-09-15T21:40:43.430Z,14.90
2018-09-15T21:43:11.726Z,14.90
2018-09-15T21:45:39.877Z,14.80
2018-09-15T21:48:08.105Z,14.80
2018-09-15T21:50:36.448Z,14.70
2018-09-15T21:53:04.612Z,14.70
2018-09-15T21:55:32.725Z,14.70
2018-09-15T21:58:00.864Z,14.70
2018-09-15T22:00:28.999Z,14.60
2018-09-15T22:02:57.122Z,14.60
2018-09-15T22:05:26.490Z,14.50
2018-09-15T22:07:54.675Z,14.50
2018-09-15T22:10:23.201Z,14.50
2018-09-15T22:12:51.365Z,14.50
2018-09-15T22:15:24.971Z,14.50
2018-09-15T22:17:54.087Z,14.40
2018-09-15T22:20:22.325Z,14.40
2018-09-15T22:22:50.477Z,14.40
2018-09-15T22:25:19.381Z,14.40
2018-09-15T22:27:48.038Z,14.30
2018-09-15T22:30:16.186Z,14.30
2018-09-15T22:32:44.918Z,14.30
2018-09-15T22:35:13.028Z,14.20
2018-09-15T22:37:41.264Z,14.20
2018-09-15T22:40:10.561Z,14.20
2018-09-15T22:42:38.692Z,14.20
2018-09-15T22:45:07.093Z,14.20
2018-09-15T22:47:35.257Z,14.20
2018-09-15T22:50:04.650Z,14.10
2018-09-15T22:52:32.834Z,14.10
2018-09-15T22:55:01.005Z,14.10
2018-09-15T22:57:30.377Z,14.10
2018-09-15T22:59:58.767Z,14.10
2018-09-15T23:02:26.921Z,14.10
2018-09-15T23:04:55.076Z,14.10
2018-09-15T23:07:23.222Z,14.10
2018-09-15T23:09:51.376Z,14.10
2018-09-15T23:12:20.266Z,14.10
2018-09-15T23:14:48.666Z,14.10
2018-09-15T23:17:16.923Z,14.10
2018-09-15T23:19:45.080Z,14.10
2018-09-15T23:22:13.206Z,14.00
2018-09-15T23:24:41.398Z,14.00
2018-09-15T23:27:09.615Z,14.00
2018-09-15T23:29:37.806Z,13.90
2018-09-15T23:32:06.193Z,13.90
2018-09-15T23:34:34.467Z,14.00
2018-09-15T23:37:02.622Z,14.00
2018-09-15T23:39:30.916Z,13.90
2018-09-15T23:41:59.043Z,14.00
2018-09-15T23:44:27.191Z,14.00
2018-09-15T23:46:55.403Z,14.10
2018-09-15T23:49:23.569Z,14.10
2018-09-15T23:51:51.711Z,14.00
2018-09-15T23:54:19.890Z,14.00
2018-09-15T23:56:48.049Z,14.00
2018-09-15T23:59:16.255Z,14.00
